sensor_id;sensor_type;location;lat;lon;timestamp;temperature;humidity
58363;DHT22;54977;51.510;7.522;2022-08-06T00:03:48;14.60;55.20
58363;DHT22;54977;51.510;7.522;2022-08-06T00:08:50;14.60;55.70
58363;DHT22;54977;51.510;7.522;2022-08-06T00:13:53;14.40;56.50
58363;DHT22;54977;51.510;7.522;2022-08-06T00:18:55;14.40;56.10
58363;DHT22;54977;51.510;7.522;2022-08-06T00:23:57;14.30;56.90
58363;DHT22;54977;51.510;7.522;2022-08-06T00:29:01;14.30;56.80
58363;DHT22;54977;51.510;7.522;2022-08-06T00:34:02;14.20;56.80
58363;DHT22;54977;51.510;7.522;2022-08-06T00:39:05;14.20;57.30
58363;DHT22;54977;51.510;7.522;2022-08-06T00:44:09;14.10;57.70
58363;DHT22;54977;51.510;7.522;2022-08-06T00:49:11;14.10;58.10
58363;DHT22;54977;51.510;7.522;2022-08-06T00:54:13;13.90;58.80
58363;DHT22;54977;51.510;7.522;2022-08-06T00:59:16;13.90;58.50
58363;DHT22;54977;51.510;7.522;2022-08-06T01:04:18;13.80;58.70
58363;DHT22;54977;51.510;7.522;2022-08-06T01:09:20;13.70;58.70
58363;DHT22;54977;51.510;7.522;2022-08-06T01:14:23;13.70;58.60
58363;DHT22;54977;51.510;7.522;2022-08-06T01:19:42;13.70;58.80
58363;DHT22;54977;51.510;7.522;2022-08-06T01:25:03;13.60;59.80
58363;DHT22;54977;51.510;7.522;2022-08-06T01:30:13;13.50;60.10
58363;DHT22;54977;51.510;7.522;2022-08-06T01:35:19;13.40;60.40
58363;DHT22;54977;51.510;7.522;2022-08-06T01:40:25;13.40;60.40
58363;DHT22;54977;51.510;7.522;2022-08-06T01:45:31;13.50;60.00
58363;DHT22;54977;51.510;7.522;2022-08-06T01:50:36;13.40;60.10
58363;DHT22;54977;51.510;7.522;2022-08-06T01:55:41;13.40;60.50
58363;DHT22;54977;51.510;7.522;2022-08-06T02:00:48;13.30;60.70
58363;DHT22;54977;51.510;7.522;2022-08-06T02:05:53;13.20;60.50
58363;DHT22;54977;51.510;7.522;2022-08-06T02:10:57;13.10;60.90
58363;DHT22;54977;51.510;7.522;2022-08-06T02:16:03;13.00;61.30
58363;DHT22;54977;51.510;7.522;2022-08-06T02:21:08;13.00;61.30
58363;DHT22;54977;51.510;7.522;2022-08-06T02:26:11;12.90;61.60
58363;DHT22;54977;51.510;7.522;2022-08-06T02:31:17;12.90;61.90
58363;DHT22;54977;51.510;7.522;2022-08-06T02:36:22;12.80;62.20
58363;DHT22;54977;51.510;7.522;2022-08-06T02:41:29;12.80;62.60
58363;DHT22;54977;51.510;7.522;2022-08-06T02:46:38;12.70;62.60
58363;DHT22;54977;51.510;7.522;2022-08-06T02:51:45;12.70;62.70
58363;DHT22;54977;51.510;7.522;2022-08-06T02:56:52;12.70;62.50
58363;DHT22;54977;51.510;7.522;2022-08-06T03:02:00;12.60;62.90
58363;DHT22;54977;51.510;7.522;2022-08-06T03:07:05;12.60;63.20
58363;DHT22;54977;51.510;7.522;2022-08-06T03:12:10;12.50;63.30
58363;DHT22;54977;51.510;7.522;2022-08-06T03:17:15;12.40;63.90
58363;DHT22;54977;51.510;7.522;2022-08-06T03:22:19;12.50;63.80
58363;DHT22;54977;51.510;7.522;2022-08-06T03:27:22;12.40;63.70
58363;DHT22;54977;51.510;7.522;2022-08-06T03:32:26;12.40;64.20
58363;DHT22;54977;51.510;7.522;2022-08-06T03:37:28;12.40;64.40
58363;DHT22;54977;51.510;7.522;2022-08-06T03:42:31;12.40;64.40
58363;DHT22;54977;51.510;7.522;2022-08-06T03:47:40;12.20;64.50
58363;DHT22;54977;51.510;7.522;2022-08-06T03:52:45;12.30;64.60
58363;DHT22;54977;51.510;7.522;2022-08-06T03:57:49;12.20;64.80
58363;DHT22;54977;51.510;7.522;2022-08-06T04:02:55;12.20;65.00
58363;DHT22;54977;51.510;7.522;2022-08-06T04:08:04;12.20;64.90
58363;DHT22;54977;51.510;7.522;2022-08-06T04:13:10;12.20;64.80
58363;DHT22;54977;51.510;7.522;2022-08-06T04:18:15;12.20;64.90
58363;DHT22;54977;51.510;7.522;2022-08-06T04:23:18;12.10;65.50
58363;DHT22;54977;51.510;7.522;2022-08-06T04:28:23;12.10;65.70
58363;DHT22;54977;51.510;7.522;2022-08-06T04:33:27;12.10;65.60
58363;DHT22;54977;51.510;7.522;2022-08-06T04:38:32;12.10;65.50
58363;DHT22;54977;51.510;7.522;2022-08-06T04:43:34;12.10;65.70
58363;DHT22;54977;51.510;7.522;2022-08-06T04:48:38;12.20;65.80
58363;DHT22;54977;51.510;7.522;2022-08-06T04:53:41;12.20;65.90
58363;DHT22;54977;51.510;7.522;2022-08-06T04:58:43;12.30;65.90
58363;DHT22;54977;51.510;7.522;2022-08-06T05:03:47;12.30;66.00
58363;DHT22;54977;51.510;7.522;2022-08-06T05:08:53;12.40;65.80
58363;DHT22;54977;51.510;7.522;2022-08-06T05:13:58;12.50;65.60
58363;DHT22;54977;51.510;7.522;2022-08-06T05:24:22;12.70;65.40
58363;DHT22;54977;51.510;7.522;2022-08-06T05:29:25;12.80;65.10
58363;DHT22;54977;51.510;7.522;2022-08-06T05:34:28;12.90;64.80
58363;DHT22;54977;51.510;7.522;2022-08-06T05:39:30;13.00;64.60
58363;DHT22;54977;51.510;7.522;2022-08-06T05:44:31;13.10;64.60
58363;DHT22;54977;51.510;7.522;2022-08-06T05:49:39;13.30;64.40
58363;DHT22;54977;51.510;7.522;2022-08-06T05:54:46;13.40;64.00
58363;DHT22;54977;51.510;7.522;2022-08-06T05:59:52;13.60;63.50
58363;DHT22;54977;51.510;7.522;2022-08-06T06:04:58;13.80;63.10
58363;DHT22;54977;51.510;7.522;2022-08-06T06:10:01;13.80;62.00
58363;DHT22;54977;51.510;7.522;2022-08-06T06:15:05;14.40;60.10
58363;DHT22;54977;51.510;7.522;2022-08-06T06:20:16;14.70;58.60
58363;DHT22;54977;51.510;7.522;2022-08-06T06:25:23;14.90;58.20
58363;DHT22;54977;51.510;7.522;2022-08-06T06:30:32;14.70;58.10
58363;DHT22;54977;51.510;7.522;2022-08-06T06:35:45;15.20;58.30
58363;DHT22;54977;51.510;7.522;2022-08-06T06:40:55;15.40;57.50
58363;DHT22;54977;51.510;7.522;2022-08-06T06:46:04;15.50;57.20
58363;DHT22;54977;51.510;7.522;2022-08-06T06:51:13;15.70;56.30
58363;DHT22;54977;51.510;7.522;2022-08-06T06:56:19;15.50;55.20
58363;DHT22;54977;51.510;7.522;2022-08-06T07:01:22;15.60;56.20
58363;DHT22;54977;51.510;7.522;2022-08-06T07:06:28;16.60;54.90
58363;DHT22;54977;51.510;7.522;2022-08-06T07:11:31;17.10;53.40
58363;DHT22;54977;51.510;7.522;2022-08-06T07:16:35;18.40;52.60
58363;DHT22;54977;51.510;7.522;2022-08-06T07:21:41;19.50;47.00
58363;DHT22;54977;51.510;7.522;2022-08-06T07:26:45;21.50;45.40
58363;DHT22;54977;51.510;7.522;2022-08-06T07:31:47;23.30;39.70
58363;DHT22;54977;51.510;7.522;2022-08-06T07:36:53;23.00;37.80
58363;DHT22;54977;51.510;7.522;2022-08-06T07:41:56;23.70;37.40
58363;DHT22;54977;51.510;7.522;2022-08-06T07:47:01;23.20;35.60
58363;DHT22;54977;51.510;7.522;2022-08-06T07:52:06;22.20;37.00
58363;DHT22;54977;51.510;7.522;2022-08-06T07:57:10;23.40;36.80
58363;DHT22;54977;51.510;7.522;2022-08-06T08:02:12;22.20;36.10
58363;DHT22;54977;51.510;7.522;2022-08-06T08:07:17;22.90;36.00
58363;DHT22;54977;51.510;7.522;2022-08-06T08:12:20;22.20;37.60
58363;DHT22;54977;51.510;7.522;2022-08-06T08:17:23;21.20;39.50
58363;DHT22;54977;51.510;7.522;2022-08-06T08:22:26;22.30;37.20
58363;DHT22;54977;51.510;7.522;2022-08-06T08:27:28;20.90;38.80
58363;DHT22;54977;51.510;7.522;2022-08-06T08:32:30;21.10;39.20
58363;DHT22;54977;51.510;7.522;2022-08-06T08:37:33;20.60;40.40
58363;DHT22;54977;51.510;7.522;2022-08-06T08:42:39;20.90;40.20
58363;DHT22;54977;51.510;7.522;2022-08-06T08:47:46;20.60;40.30
58363;DHT22;54977;51.510;7.522;2022-08-06T08:52:51;20.60;41.20
58363;DHT22;54977;51.510;7.522;2022-08-06T08:57:53;20.40;40.70
58363;DHT22;54977;51.510;7.522;2022-08-06T09:02:56;20.70;39.50
58363;DHT22;54977;51.510;7.522;2022-08-06T09:08:01;20.20;40.20
58363;DHT22;54977;51.510;7.522;2022-08-06T09:13:04;18.60;39.40
58363;DHT22;54977;51.510;7.522;2022-08-06T09:18:05;18.90;40.30
58363;DHT22;54977;51.510;7.522;2022-08-06T09:23:09;18.40;38.40
58363;DHT22;54977;51.510;7.522;2022-08-06T09:28:30;18.80;40.30
58363;DHT22;54977;51.510;7.522;2022-08-06T09:33:35;18.80;38.70
58363;DHT22;54977;51.510;7.522;2022-08-06T09:38:49;19.40;37.10
58363;DHT22;54977;51.510;7.522;2022-08-06T09:43:53;19.70;37.40
58363;DHT22;54977;51.510;7.522;2022-08-06T09:48:58;19.90;37.10
58363;DHT22;54977;51.510;7.522;2022-08-06T09:54:04;21.30;36.40
58363;DHT22;54977;51.510;7.522;2022-08-06T09:59:08;21.40;34.10
58363;DHT22;54977;51.510;7.522;2022-08-06T10:04:12;21.40;33.10
58363;DHT22;54977;51.510;7.522;2022-08-06T10:09:16;22.30;34.50
58363;DHT22;54977;51.510;7.522;2022-08-06T10:14:22;22.70;32.40
58363;DHT22;54977;51.510;7.522;2022-08-06T10:19:24;23.10;31.90
58363;DHT22;54977;51.510;7.522;2022-08-06T10:24:27;22.20;31.40
58363;DHT22;54977;51.510;7.522;2022-08-06T10:29:30;21.20;32.80
58363;DHT22;54977;51.510;7.522;2022-08-06T10:34:33;22.00;32.50
58363;DHT22;54977;51.510;7.522;2022-08-06T10:39:42;22.10;32.70
58363;DHT22;54977;51.510;7.522;2022-08-06T10:44:45;21.30;33.00
58363;DHT22;54977;51.510;7.522;2022-08-06T10:49:47;20.80;34.40
58363;DHT22;54977;51.510;7.522;2022-08-06T10:54:51;21.10;32.60
58363;DHT22;54977;51.510;7.522;2022-08-06T10:59:55;21.10;33.60
58363;DHT22;54977;51.510;7.522;2022-08-06T11:04:58;21.50;32.40
58363;DHT22;54977;51.510;7.522;2022-08-06T11:10:16;21.60;33.00
58363;DHT22;54977;51.510;7.522;2022-08-06T11:15:21;22.50;32.20
58363;DHT22;54977;51.510;7.522;2022-08-06T11:20:38;22.10;30.80
58363;DHT22;54977;51.510;7.522;2022-08-06T11:25:44;21.30;31.70
58363;DHT22;54977;51.510;7.522;2022-08-06T11:30:48;20.70;32.30
58363;DHT22;54977;51.510;7.522;2022-08-06T11:35:51;20.70;31.60
58363;DHT22;54977;51.510;7.522;2022-08-06T11:40:55;21.40;31.80
58363;DHT22;54977;51.510;7.522;2022-08-06T11:46:19;22.40;31.40
58363;DHT22;54977;51.510;7.522;2022-08-06T11:51:40;21.10;32.10
58363;DHT22;54977;51.510;7.522;2022-08-06T11:57:19;20.50;31.90
58363;DHT22;54977;51.510;7.522;2022-08-06T12:02:52;20.40;31.80
58363;DHT22;54977;51.510;7.522;2022-08-06T12:13:40;22.10;30.30
58363;DHT22;54977;51.510;7.522;2022-08-06T12:18:43;21.90;30.90
58363;DHT22;54977;51.510;7.522;2022-08-06T12:23:44;21.60;29.20
58363;DHT22;54977;51.510;7.522;2022-08-06T12:28:51;21.20;29.10
58363;DHT22;54977;51.510;7.522;2022-08-06T12:33:53;21.00;30.00
58363;DHT22;54977;51.510;7.522;2022-08-06T12:38:56;21.90;30.60
58363;DHT22;54977;51.510;7.522;2022-08-06T12:43:59;25.10;28.40
58363;DHT22;54977;51.510;7.522;2022-08-06T12:49:01;27.10;26.00
58363;DHT22;54977;51.510;7.522;2022-08-06T12:54:05;29.90;23.70
58363;DHT22;54977;51.510;7.522;2022-08-06T12:59:11;29.70;22.60
58363;DHT22;54977;51.510;7.522;2022-08-06T13:04:14;27.80;23.80
58363;DHT22;54977;51.510;7.522;2022-08-06T13:09:16;25.10;26.00
58363;DHT22;54977;51.510;7.522;2022-08-06T13:14:21;23.80;27.80
58363;DHT22;54977;51.510;7.522;2022-08-06T13:19:23;24.20;27.10
58363;DHT22;54977;51.510;7.522;2022-08-06T13:24:26;27.80;25.20
58363;DHT22;54977;51.510;7.522;2022-08-06T13:29:29;31.30;22.00
58363;DHT22;54977;51.510;7.522;2022-08-06T13:34:45;33.30;21.40
58363;DHT22;54977;51.510;7.522;2022-08-06T13:39:51;30.20;21.80
58363;DHT22;54977;51.510;7.522;2022-08-06T13:44:54;27.60;23.20
58363;DHT22;54977;51.510;7.522;2022-08-06T13:49:56;29.80;23.30
58363;DHT22;54977;51.510;7.522;2022-08-06T13:54:58;31.90;21.50
58363;DHT22;54977;51.510;7.522;2022-08-06T14:00:02;33.60;20.50
58363;DHT22;54977;51.510;7.522;2022-08-06T14:05:04;33.10;20.30
58363;DHT22;54977;51.510;7.522;2022-08-06T14:10:07;33.10;19.30
58363;DHT22;54977;51.510;7.522;2022-08-06T14:15:11;32.40;20.70
58363;DHT22;54977;51.510;7.522;2022-08-06T14:20:13;29.40;22.10
58363;DHT22;54977;51.510;7.522;2022-08-06T14:25:15;28.50;23.70
58363;DHT22;54977;51.510;7.522;2022-08-06T14:30:20;28.00;23.70
58363;DHT22;54977;51.510;7.522;2022-08-06T14:35:22;30.50;23.30
58363;DHT22;54977;51.510;7.522;2022-08-06T14:40:24;28.70;22.70
58363;DHT22;54977;51.510;7.522;2022-08-06T14:45:45;27.00;24.10
58363;DHT22;54977;51.510;7.522;2022-08-06T14:50:47;25.30;25.40
58363;DHT22;54977;51.510;7.522;2022-08-06T14:55:49;25.00;26.00
58363;DHT22;54977;51.510;7.522;2022-08-06T15:00:52;25.60;25.80
58363;DHT22;54977;51.510;7.522;2022-08-06T15:05:54;26.10;24.30
58363;DHT22;54977;51.510;7.522;2022-08-06T15:10:56;27.50;23.70
58363;DHT22;54977;51.510;7.522;2022-08-06T15:16:00;30.00;23.40
58363;DHT22;54977;51.510;7.522;2022-08-06T15:21:03;31.20;21.80
58363;DHT22;54977;51.510;7.522;2022-08-06T15:26:05;32.10;21.50
58363;DHT22;54977;51.510;7.522;2022-08-06T15:31:08;32.50;20.90
58363;DHT22;54977;51.510;7.522;2022-08-06T15:36:10;33.00;20.50
58363;DHT22;54977;51.510;7.522;2022-08-06T15:41:12;30.80;21.30
58363;DHT22;54977;51.510;7.522;2022-08-06T15:46:16;29.20;22.30
58363;DHT22;54977;51.510;7.522;2022-08-06T15:51:23;29.80;22.20
58363;DHT22;54977;51.510;7.522;2022-08-06T15:56:25;28.90;23.10
58363;DHT22;54977;51.510;7.522;2022-08-06T16:01:29;28.80;22.00
58363;DHT22;54977;51.510;7.522;2022-08-06T16:06:31;29.80;21.70
58363;DHT22;54977;51.510;7.522;2022-08-06T16:11:33;29.70;21.80
58363;DHT22;54977;51.510;7.522;2022-08-06T16:16:36;28.80;22.90
58363;DHT22;54977;51.510;7.522;2022-08-06T16:21:38;25.80;25.30
58363;DHT22;54977;51.510;7.522;2022-08-06T16:26:40;23.90;27.40
58363;DHT22;54977;51.510;7.522;2022-08-06T16:31:43;22.50;28.60
58363;DHT22;54977;51.510;7.522;2022-08-06T16:36:45;22.20;29.60
58363;DHT22;54977;51.510;7.522;2022-08-06T16:41:47;21.30;30.90
58363;DHT22;54977;51.510;7.522;2022-08-06T16:46:50;21.30;31.10
58363;DHT22;54977;51.510;7.522;2022-08-06T16:51:52;21.00;30.70
58363;DHT22;54977;51.510;7.522;2022-08-06T16:56:54;21.00;31.60
58363;DHT22;54977;51.510;7.522;2022-08-06T17:01:57;20.70;31.10
58363;DHT22;54977;51.510;7.522;2022-08-06T17:07:17;20.50;32.00
58363;DHT22;54977;51.510;7.522;2022-08-06T17:12:19;20.40;31.70
58363;DHT22;54977;51.510;7.522;2022-08-06T17:17:22;20.30;31.90
58363;DHT22;54977;51.510;7.522;2022-08-06T17:22:24;20.50;32.30
58363;DHT22;54977;51.510;7.522;2022-08-06T17:27:26;20.80;32.00
58363;DHT22;54977;51.510;7.522;2022-08-06T17:32:29;20.80;32.40
58363;DHT22;54977;51.510;7.522;2022-08-06T17:37:33;20.90;32.50
58363;DHT22;54977;51.510;7.522;2022-08-06T17:42:35;20.90;32.70
58363;DHT22;54977;51.510;7.522;2022-08-06T17:47:38;20.80;32.90
58363;DHT22;54977;51.510;7.522;2022-08-06T17:52:40;20.50;33.10
58363;DHT22;54977;51.510;7.522;2022-08-06T17:57:42;20.40;33.00
58363;DHT22;54977;51.510;7.522;2022-08-06T18:02:45;20.70;32.90
58363;DHT22;54977;51.510;7.522;2022-08-06T18:07:47;20.80;32.80
58363;DHT22;54977;51.510;7.522;2022-08-06T18:12:49;20.80;32.60
58363;DHT22;54977;51.510;7.522;2022-08-06T18:17:53;20.80;32.40
58363;DHT22;54977;51.510;7.522;2022-08-06T18:22:56;20.50;32.40
58363;DHT22;54977;51.510;7.522;2022-08-06T18:27:58;20.30;33.60
58363;DHT22;54977;51.510;7.522;2022-08-06T18:33:01;20.20;33.50
58363;DHT22;54977;51.510;7.522;2022-08-06T18:38:03;20.20;33.80
58363;DHT22;54977;51.510;7.522;2022-08-06T18:43:05;20.10;34.10
58363;DHT22;54977;51.510;7.522;2022-08-06T18:48:08;19.80;35.00
58363;DHT22;54977;51.510;7.522;2022-08-06T18:53:11;19.90;34.80
58363;DHT22;54977;51.510;7.522;2022-08-06T18:58:13;19.80;35.30
58363;DHT22;54977;51.510;7.522;2022-08-06T19:03:16;19.50;36.10
58363;DHT22;54977;51.510;7.522;2022-08-06T19:08:18;19.30;36.60
58363;DHT22;54977;51.510;7.522;2022-08-06T19:13:20;19.10;37.10
58363;DHT22;54977;51.510;7.522;2022-08-06T19:18:23;18.90;37.20
58363;DHT22;54977;51.510;7.522;2022-08-06T19:23:25;18.70;37.40
58363;DHT22;54977;51.510;7.522;2022-08-06T19:28:27;18.60;37.80
58363;DHT22;54977;51.510;7.522;2022-08-06T19:33:30;18.40;38.10
58363;DHT22;54977;51.510;7.522;2022-08-06T19:38:32;18.30;38.70
58363;DHT22;54977;51.510;7.522;2022-08-06T19:43:34;18.20;38.80
58363;DHT22;54977;51.510;7.522;2022-08-06T19:48:37;18.00;39.40
58363;DHT22;54977;51.510;7.522;2022-08-06T19:53:39;17.80;40.40
58363;DHT22;54977;51.510;7.522;2022-08-06T19:58:42;17.70;40.40
58363;DHT22;54977;51.510;7.522;2022-08-06T20:03:45;17.60;40.70
58363;DHT22;54977;51.510;7.522;2022-08-06T20:08:47;17.50;41.10
58363;DHT22;54977;51.510;7.522;2022-08-06T20:13:49;17.40;41.60
58363;DHT22;54977;51.510;7.522;2022-08-06T20:18:52;17.20;41.70
58363;DHT22;54977;51.510;7.522;2022-08-06T20:23:54;17.10;42.20
58363;DHT22;54977;51.510;7.522;2022-08-06T20:28:56;17.10;42.70
58363;DHT22;54977;51.510;7.522;2022-08-06T20:34:00;16.90;43.00
58363;DHT22;54977;51.510;7.522;2022-08-06T20:39:02;16.80;43.30
58363;DHT22;54977;51.510;7.522;2022-08-06T20:44:04;16.60;44.10
58363;DHT22;54977;51.510;7.522;2022-08-06T20:49:07;16.50;45.00
58363;DHT22;54977;51.510;7.522;2022-08-06T20:54:10;16.40;45.50
58363;DHT22;54977;51.510;7.522;2022-08-06T20:59:12;16.40;45.70
58363;DHT22;54977;51.510;7.522;2022-08-06T21:04:15;16.30;46.20
58363;DHT22;54977;51.510;7.522;2022-08-06T21:09:17;16.20;46.30
58363;DHT22;54977;51.510;7.522;2022-08-06T21:14:18;16.20;46.90
58363;DHT22;54977;51.510;7.522;2022-08-06T21:19:22;16.10;47.30
58363;DHT22;54977;51.510;7.522;2022-08-06T21:24:23;16.00;48.00
58363;DHT22;54977;51.510;7.522;2022-08-06T21:29:25;15.80;48.70
58363;DHT22;54977;51.510;7.522;2022-08-06T21:34:29;15.90;48.20
58363;DHT22;54977;51.510;7.522;2022-08-06T21:39:32;15.90;48.00
58363;DHT22;54977;51.510;7.522;2022-08-06T21:44:34;15.80;48.20
58363;DHT22;54977;51.510;7.522;2022-08-06T21:49:37;15.70;48.80
58363;DHT22;54977;51.510;7.522;2022-08-06T21:54:39;15.70;48.50
58363;DHT22;54977;51.510;7.522;2022-08-06T21:59:41;15.70;48.70
58363;DHT22;54977;51.510;7.522;2022-08-06T22:04:44;15.60;49.30
58363;DHT22;54977;51.510;7.522;2022-08-06T22:09:49;15.50;49.70
58363;DHT22;54977;51.510;7.522;2022-08-06T22:14:51;15.40;49.50
58363;DHT22;54977;51.510;7.522;2022-08-06T22:19:54;15.40;50.10
58363;DHT22;54977;51.510;7.522;2022-08-06T22:24:56;15.20;50.70
58363;DHT22;54977;51.510;7.522;2022-08-06T22:29:58;15.20;50.90
58363;DHT22;54977;51.510;7.522;2022-08-06T22:35:19;15.20;51.30
58363;DHT22;54977;51.510;7.522;2022-08-06T22:40:21;15.00;52.00
58363;DHT22;54977;51.510;7.522;2022-08-06T22:45:23;15.00;52.20
58363;DHT22;54977;51.510;7.522;2022-08-06T22:50:26;14.90;52.20
58363;DHT22;54977;51.510;7.522;2022-08-06T22:55:29;14.80;52.90
58363;DHT22;54977;51.510;7.522;2022-08-06T23:00:31;14.90;52.20
58363;DHT22;54977;51.510;7.522;2022-08-06T23:05:35;14.90;51.80
58363;DHT22;54977;51.510;7.522;2022-08-06T23:10:37;14.90;51.70
58363;DHT22;54977;51.510;7.522;2022-08-06T23:15:38;14.80;52.10
58363;DHT22;54977;51.510;7.522;2022-08-06T23:20:41;14.80;52.50
58363;DHT22;54977;51.510;7.522;2022-08-06T23:25:43;14.70;53.20
58363;DHT22;54977;51.510;7.522;2022-08-06T23:30:45;14.60;53.40
58363;DHT22;54977;51.510;7.522;2022-08-06T23:35:48;14.50;53.90
58363;DHT22;54977;51.510;7.522;2022-08-06T23:40:50;14.50;53.60
58363;DHT22;54977;51.510;7.522;2022-08-06T23:45:52;14.40;54.00
58363;DHT22;54977;51.510;7.522;2022-08-06T23:50:55;14.30;54.60
58363;DHT22;54977;51.510;7.522;2022-08-06T23:55:57;14.20;54.40
